Time;durP1;ratioP1;P1;durP2;ratioP2;P2;SDS_P1;SDS_P2;PMS_P1;PMS_P2;Temp;Humidity;BMP_temperature;BMP_pressure;BME280_temperature;BME280_humidity;BME280_pressure;Samples;Min_cycle;Max_cycle;Signal;HPM_P1;HPM_P2
2023/05/04 00:02:16;;;;;;;3.30;2.55;;;;;;;13.91;68.63;100975.19;1744134;82;21497;-57
2023/05/04 00:04:46;;;;;;;3.33;2.20;;;;;;;13.85;68.68;100980.99;1743862;82;21509;-57
2023/05/04 00:07:16;;;;;;;3.42;2.42;;;;;;;13.82;68.80;100985.53;1743977;82;21472;-57
2023/05/04 00:09:45;;;;;;;3.33;2.58;;;;;;;13.82;68.85;100987.44;1743797;81;21103;-59
2023/05/04 00:12:14;;;;;;;3.15;2.40;;;;;;;13.83;68.79;100989.14;1743942;81;21083;-58
2023/05/04 00:14:44;;;;;;;3.35;2.37;;;;;;;13.84;68.75;100995.81;1744041;82;21032;-58
2023/05/04 00:17:14;;;;;;;4.25;2.30;;;;;;;13.82;68.72;100996.55;1743992;81;21024;-57
2023/05/04 00:19:44;;;;;;;4.87;2.35;;;;;;;13.81;68.76;101003.64;1743776;82;21032;-58
2023/05/04 00:22:13;;;;;;;3.72;2.60;;;;;;;13.80;68.76;100997.81;1744145;81;21044;-58
2023/05/04 00:24:43;;;;;;;3.17;2.05;;;;;;;13.77;68.79;100992.71;1743965;81;21071;-58
2023/05/04 00:27:11;;;;;;;2.60;2.20;;;;;;;13.75;68.87;100996.20;1743913;81;21019;-58
2023/05/04 00:29:40;;;;;;;3.65;2.35;;;;;;;13.73;68.93;100995.55;1743823;82;21099;-59
2023/05/04 00:32:09;;;;;;;2.85;2.27;;;;;;;13.70;69.04;100999.56;1743989;82;21440;-58
2023/05/04 00:34:38;;;;;;;3.83;2.30;;;;;;;13.67;69.25;100996.36;1743856;82;21055;-58
2023/05/04 00:37:07;;;;;;;4.70;2.35;;;;;;;13.61;69.42;100998.00;1743821;81;21510;-58
2023/05/04 00:39:37;;;;;;;4.58;2.65;;;;;;;13.59;69.52;101000.95;1744225;82;21012;-58
2023/05/04 00:42:06;;;;;;;3.12;2.30;;;;;;;13.59;69.54;100998.20;1744050;82;21059;-58
2023/05/04 00:44:34;;;;;;;3.47;2.40;;;;;;;13.57;69.54;101003.58;1743903;82;21514;-58
2023/05/04 00:47:03;;;;;;;2.80;2.25;;;;;;;13.54;69.68;100999.86;1743825;81;21016;-59
2023/05/04 00:49:32;;;;;;;4.12;2.15;;;;;;;13.52;69.78;101007.47;1744039;81;21051;-59
2023/05/04 00:52:01;;;;;;;3.02;2.20;;;;;;;13.48;69.90;101000.67;1743992;82;21547;-58
2023/05/04 00:54:30;;;;;;;5.62;2.50;;;;;;;13.46;70.03;100995.37;1744208;82;21050;-58
2023/05/04 00:57:00;;;;;;;4.28;2.58;;;;;;;13.43;70.20;101001.80;1744618;82;21007;-58
2023/05/04 00:59:30;;;;;;;3.80;2.65;;;;;;;13.39;70.41;100998.60;1744197;82;21529;-60
2023/05/04 01:01:58;;;;;;;4.28;2.58;;;;;;;13.36;70.69;101000.38;1744250;81;21016;-58
2023/05/04 01:04:28;;;;;;;3.35;2.52;;;;;;;13.31;70.98;100994.62;1744031;82;21432;-61
2023/05/04 01:07:11;;;;;;;3.15;2.58;;;;;;;13.30;71.21;100992.92;1743853;81;21413;-57
2023/05/04 01:10:00;;;;;;;3.40;2.60;;;;;;;13.32;71.30;100993.58;1744099;82;21440;-58
2023/05/04 01:12:38;;;;;;;6.70;2.47;;;;;;;13.33;71.50;100992.52;1743892;82;20992;-61
2023/05/04 01:15:08;;;;;;;3.42;2.40;;;;;;;13.30;71.68;100999.81;1744169;82;21495;-59
2023/05/04 01:17:37;;;;;;;5.03;2.52;;;;;;;13.28;71.87;100998.63;1747937;81;21016;-58
2023/05/04 01:20:08;;;;;;;4.40;2.42;;;;;;;13.27;72.10;101001.59;1757368;81;20991;-61
2023/05/04 01:22:38;;;;;;;3.12;2.40;;;;;;;13.26;72.24;100996.61;1757308;82;21019;-58
2023/05/04 01:25:08;;;;;;;3.77;2.67;;;;;;;13.25;72.40;100998.19;1757510;81;21477;-57
2023/05/04 01:28:01;;;;;;;4.45;2.60;;;;;;;13.22;72.55;100995.31;1740858;82;20991;-59
2023/05/04 01:30:34;;;;;;;3.77;2.77;;;;;;;13.23;72.66;100996.16;1757430;82;21411;-58
2023/05/04 01:33:02;;;;;;;3.12;2.50;;;;;;;13.25;72.79;100994.05;1757062;82;20991;-58
2023/05/04 01:35:32;;;;;;;4.12;2.50;;;;;;;13.25;72.86;100983.90;1757181;82;21520;-58
2023/05/04 01:38:01;;;;;;;4.53;2.50;;;;;;;13.24;72.98;100981.34;1740476;82;21084;-59
2023/05/04 01:40:30;;;;;;;4.37;2.65;;;;;;;13.24;73.13;100984.09;1757108;82;21055;-57
2023/05/04 01:42:59;;;;;;;3.30;2.52;;;;;;;13.23;73.17;100975.00;1757304;81;21020;-57
2023/05/04 01:45:28;;;;;;;2.87;2.30;;;;;;;13.21;73.24;100974.34;1757401;81;21027;-57
2023/05/04 01:47:57;;;;;;;2.80;2.40;;;;;;;13.17;73.39;100977.17;1757321;82;21091;-58
2023/05/04 01:50:26;;;;;;;4.03;2.50;;;;;;;13.14;73.48;100972.56;1757286;80;21086;-58
2023/05/04 01:52:55;;;;;;;3.12;2.50;;;;;;;13.09;73.61;100977.30;1757036;82;21518;-57
2023/05/04 01:55:24;;;;;;;3.20;2.50;;;;;;;13.08;73.84;100983.84;1757358;81;21072;-57
2023/05/04 01:57:54;;;;;;;4.20;2.70;;;;;;;13.07;74.04;100979.92;1757284;82;21040;-58
2023/05/04 02:00:23;;;;;;;4.35;2.70;;;;;;;13.06;74.13;100976.84;1757019;82;21051;-57
2023/05/04 02:02:52;;;;;;;3.33;2.47;;;;;;;13.03;74.46;100970.36;1756998;82;21012;-58
2023/05/04 02:05:21;;;;;;;4.20;2.58;;;;;;;13.02;74.69;100972.27;1757080;82;21011;-58
2023/05/04 02:07:49;;;;;;;3.65;2.87;;;;;;;12.96;74.95;100976.63;1757364;81;21090;-58
2023/05/04 02:10:19;;;;;;;4.08;3.00;;;;;;;12.91;75.08;100981.88;1757284;81;20996;-58
2023/05/04 02:12:48;;;;;;;3.75;2.85;;;;;;;12.90;75.30;100979.33;1757322;82;20984;-59
2023/05/04 02:15:17;;;;;;;3.77;2.70;;;;;;;12.89;75.41;100977.62;1757059;82;21458;-59
2023/05/04 02:17:47;;;;;;;5.00;2.85;;;;;;;12.83;75.51;100976.52;1755005;82;21107;-58
2023/05/04 02:20:16;;;;;;;4.00;2.62;;;;;;;12.79;75.67;100983.47;1743804;82;21036;-57
2023/05/04 02:22:48;;;;;;;4.15;2.98;;;;;;;12.74;75.91;100979.09;1743952;81;21067;-58
2023/05/04 02:25:17;;;;;;;3.55;2.75;;;;;;;12.65;76.14;100976.15;1744064;81;21024;-57
2023/05/04 02:27:47;;;;;;;5.20;2.87;;;;;;;12.59;76.41;100969.55;1743807;82;21012;-58
2023/05/04 02:30:18;;;;;;;5.00;2.90;;;;;;;12.56;76.59;100978.70;1744135;81;21569;-57
2023/05/04 02:32:46;;;;;;;5.08;3.12;;;;;;;12.55;76.77;100982.50;1743808;82;21094;-58
2023/05/04 02:35:16;;;;;;;4.53;2.77;;;;;;;12.53;76.92;100974.45;1743928;82;20984;-56
2023/05/04 02:37:46;;;;;;;4.37;3.00;;;;;;;12.53;77.12;100984.59;1743861;81;21479;-58
2023/05/04 02:40:15;;;;;;;4.03;2.90;;;;;;;12.52;77.22;100975.50;1743848;82;21039;-59
2023/05/04 02:42:44;;;;;;;3.52;2.67;;;;;;;12.52;77.23;100970.52;1743892;82;21043;-58
2023/05/04 02:45:19;;;;;;;3.75;2.87;;;;;;;12.49;77.23;100978.64;1744002;82;21024;-57
2023/05/04 02:47:47;;;;;;;5.17;2.92;;;;;;;12.47;77.33;100977.13;1743929;82;21075;-58
2023/05/04 02:50:17;;;;;;;6.00;3.37;;;;;;;12.44;77.55;100978.91;1744233;82;21012;-57
2023/05/04 02:52:46;;;;;;;6.37;3.15;;;;;;;12.37;77.74;100982.95;1744131;82;21012;-58
2023/05/04 02:55:16;;;;;;;6.65;3.22;;;;;;;12.30;78.05;100986.97;1744152;81;21523;-56
2023/05/04 02:57:44;;;;;;;5.55;3.47;;;;;;;12.27;78.29;100980.50;1743855;82;20986;-58
2023/05/04 03:00:14;;;;;;;5.60;3.77;;;;;;;12.27;78.47;100980.50;1743726;82;21444;-57
2023/05/04 03:02:43;;;;;;;5.20;3.80;;;;;;;12.26;78.69;100973.82;1743904;81;21024;-58
2023/05/04 03:05:12;;;;;;;5.87;3.30;;;;;;;12.21;78.80;100969.43;1744070;82;21464;-58
2023/05/04 03:07:41;;;;;;;7.35;3.62;;;;;;;12.21;78.97;100972.17;1743340;81;21440;-57
2023/05/04 03:10:10;;;;;;;5.37;3.30;;;;;;;12.18;79.09;100972.56;1743826;81;21291;-58
2023/05/04 03:12:40;;;;;;;4.97;3.67;;;;;;;12.16;79.19;100976.03;1743956;81;21056;-56
2023/05/04 03:15:09;;;;;;;5.15;3.47;;;;;;;12.15;79.34;100975.70;1743841;82;21012;-58
2023/05/04 03:17:40;;;;;;;5.65;4.10;;;;;;;12.17;79.43;100983.23;1743762;82;21095;-58
2023/05/04 03:20:11;;;;;;;5.42;4.00;;;;;;;12.18;79.44;100972.05;1743779;82;21024;-58
2023/05/04 03:22:41;;;;;;;6.15;4.00;;;;;;;12.21;79.48;100966.16;1743915;82;21063;-59
2023/05/04 03:25:10;;;;;;;6.03;4.10;;;;;;;12.20;79.37;100964.45;1744005;82;21016;-58
2023/05/04 03:27:41;;;;;;;5.12;3.87;;;;;;;12.20;79.45;100964.98;1743739;81;21533;-57
2023/05/04 03:30:11;;;;;;;6.35;3.90;;;;;;;12.22;79.53;100951.38;1744133;82;21420;-58
2023/05/04 03:32:42;;;;;;;8.30;4.58;;;;;;;12.23;79.47;100945.36;1733584;82;21028;-58
2023/05/04 03:35:12;;;;;;;7.95;4.12;;;;;;;12.20;79.46;100942.48;1743901;82;21111;-57
2023/05/04 03:37:41;;;;;;;5.55;3.87;;;;;;;12.16;79.59;100946.66;1743781;82;21051;-59
2023/05/04 03:40:12;;;;;;;5.60;4.20;;;;;;;12.16;79.72;100948.56;1743986;81;21498;-58
2023/05/04 03:42:41;;;;;;;6.58;4.37;;;;;;;12.15;79.78;100958.70;1743971;81;21020;-57
2023/05/04 03:45:11;;;;;;;7.22;4.35;;;;;;;12.19;79.83;100961.38;1733538;82;21120;-58
2023/05/04 03:47:40;;;;;;;8.68;4.83;;;;;;;12.22;79.89;100959.63;1743484;82;20984;-58
2023/05/04 03:50:10;;;;;;;7.75;4.10;;;;;;;12.24;79.77;100966.30;1743964;82;21032;-57
2023/05/04 03:52:38;;;;;;;5.80;4.30;;;;;;;12.23;79.71;100975.06;1744108;81;21468;-58
2023/05/04 03:55:09;;;;;;;6.62;4.28;;;;;;;12.23;79.85;100981.93;1744103;82;21024;-59
2023/05/04 03:57:38;;;;;;;8.78;4.30;;;;;;;12.22;79.89;100976.63;1743781;82;20996;-57
2023/05/04 04:00:08;;;;;;;6.08;4.00;;;;;;;12.23;80.03;100979.18;1743758;81;21444;-58
2023/05/04 04:02:38;;;;;;;9.85;4.90;;;;;;;12.25;79.99;100979.84;1743504;81;21024;-57
2023/05/04 04:05:09;;;;;;;9.18;4.50;;;;;;;12.31;80.01;100978.20;1743833;82;21509;-57
2023/05/04 04:07:40;;;;;;;7.28;5.10;;;;;;;12.38;79.93;100985.50;1743964;82;21004;-59
2023/05/04 04:10:10;;;;;;;12.13;5.85;;;;;;;12.44;79.68;100989.89;1744078;81;21095;-58
2023/05/04 04:12:38;;;;;;;9.40;5.50;;;;;;;12.49;79.55;100990.16;1743967;81;20993;-59
2023/05/04 04:15:08;;;;;;;12.70;7.55;;;;;;;12.51;79.43;100987.55;1744004;82;21020;-58
2023/05/04 04:17:36;;;;;;;10.20;5.20;;;;;;;12.57;79.35;100984.01;1743973;81;21001;-58
2023/05/04 04:20:07;;;;;;;8.38;5.03;;;;;;;12.62;79.21;100976.02;1743875;81;21071;-57
2023/05/04 04:22:38;;;;;;;12.28;5.50;;;;;;;12.69;79.05;100977.45;1743824;81;21044;-58
2023/05/04 04:25:09;;;;;;;7.00;5.50;;;;;;;12.74;78.73;100982.36;1743901;82;21004;-58
2023/05/04 04:27:40;;;;;;;10.53;6.58;;;;;;;12.75;78.47;100982.16;1743822;82;21020;-57
2023/05/04 04:30:12;;;;;;;13.98;5.83;;;;;;;12.77;78.45;100980.59;1744094;82;21008;-57
2023/05/04 04:32:41;;;;;;;11.95;5.22;;;;;;;12.80;78.33;100990.67;1744029;82;21043;-58
2023/05/04 04:35:09;;;;;;;11.75;5.22;;;;;;;12.85;78.10;100990.08;1744092;82;21031;-58
2023/05/04 04:37:38;;;;;;;7.65;4.90;;;;;;;12.88;77.98;100995.18;1743724;81;21020;-58
2023/05/04 04:40:09;;;;;;;10.30;5.80;;;;;;;12.91;77.79;100994.26;1744106;81;21020;-60
2023/05/04 04:42:38;;;;;;;10.78;5.50;;;;;;;12.97;77.66;100998.97;1743919;82;21016;-57
2023/05/04 04:45:08;;;;;;;11.93;5.78;;;;;;;13.00;77.24;101005.97;1743962;82;21047;-57
2023/05/04 04:47:38;;;;;;;9.08;5.70;;;;;;;13.01;77.30;101015.43;1743845;81;21016;-62
2023/05/04 04:50:09;;;;;;;11.35;6.12;;;;;;;12.99;77.17;101013.37;1743722;81;21522;-58
2023/05/04 04:52:39;;;;;;;14.20;5.70;;;;;;;13.02;77.16;101012.16;1743814;82;21095;-58
2023/05/04 04:55:09;;;;;;;10.60;6.15;;;;;;;13.08;77.18;101009.13;1744030;82;21012;-57
2023/05/04 04:57:39;;;;;;;9.88;5.60;;;;;;;13.17;76.90;101007.97;1743783;82;21051;-59
2023/05/04 05:00:09;;;;;;;10.23;5.47;;;;;;;13.23;76.56;101001.66;1743789;82;21478;-57
2023/05/04 05:02:37;;;;;;;9.25;5.85;;;;;;;13.27;76.26;100997.45;1743730;81;21504;-57
2023/05/04 05:05:07;;;;;;;9.25;5.83;;;;;;;13.31;76.19;100996.00;1743902;82;21483;-58
2023/05/04 05:07:37;;;;;;;8.00;5.33;;;;;;;13.37;76.06;101004.83;1743958;82;21415;-58
2023/05/04 05:10:07;;;;;;;8.30;5.10;;;;;;;13.45;75.80;101006.05;1743768;82;21486;-58
2023/05/04 05:12:36;;;;;;;17.12;6.22;;;;;;;13.47;75.36;101007.23;1744015;81;21015;-58
2023/05/04 05:15:06;;;;;;;16.00;6.33;;;;;;;13.49;75.17;101013.38;1743775;81;20984;-59
2023/05/04 05:17:36;;;;;;;11.68;7.53;;;;;;;13.50;75.20;101003.55;1743739;81;21527;-58
2023/05/04 05:20:10;;;;;;;8.93;5.70;;;;;;;13.57;75.28;101008.56;1748838;82;21001;-58
2023/05/04 05:22:38;;;;;;;16.85;6.30;;;;;;;13.68;75.00;101000.81;1757415;82;20972;-58
2023/05/04 05:25:07;;;;;;;10.05;5.70;;;;;;;13.81;74.86;100999.52;1757055;82;21420;-58
2023/05/04 05:27:36;;;;;;;11.95;6.03;;;;;;;13.95;74.31;100999.89;1757228;80;21059;-58
2023/05/04 05:30:07;;;;;;;8.00;5.60;;;;;;;14.07;73.46;101001.00;1757097;81;21473;-58
2023/05/04 05:32:37;;;;;;;8.20;5.62;;;;;;;14.11;72.87;101002.30;1757244;82;21007;-58
2023/05/04 05:35:08;;;;;;;9.85;5.35;;;;;;;14.15;72.40;101010.47;1757067;82;21078;-58
2023/05/04 05:37:37;;;;;;;13.20;5.37;;;;;;;14.12;72.11;101005.89;1757152;81;21027;-60
2023/05/04 05:40:08;;;;;;;9.45;5.35;;;;;;;14.14;72.28;101000.50;1757097;80;21136;-57
2023/05/04 05:42:41;;;;;;;9.33;4.87;;;;;;;14.21;71.92;100994.48;1757319;81;21091;-58
2023/05/04 05:45:11;;;;;;;7.80;5.53;;;;;;;14.27;71.64;101000.55;1757127;80;21059;-58
2023/05/04 05:47:39;;;;;;;10.80;6.20;;;;;;;14.36;71.45;100991.59;1757169;81;21428;-58
2023/05/04 05:50:09;;;;;;;9.85;6.25;;;;;;;14.42;70.96;100989.41;1757237;82;21517;-58
2023/05/04 05:52:39;;;;;;;8.28;6.22;;;;;;;14.48;70.63;100994.09;1757053;82;21004;-59
2023/05/04 05:55:09;;;;;;;10.68;6.12;;;;;;;14.53;70.32;100996.22;1757207;80;21460;-59
2023/05/04 05:57:39;;;;;;;9.48;5.33;;;;;;;14.55;69.82;100999.62;1757119;82;21020;-57
2023/05/04 06:00:08;;;;;;;8.95;5.90;;;;;;;14.53;69.78;100995.69;1757031;82;21047;-58
2023/05/04 06:02:40;;;;;;;12.95;5.65;;;;;;;14.56;69.79;100991.13;1757049;82;21463;-58
2023/05/04 06:05:10;;;;;;;9.85;5.30;;;;;;;14.64;69.76;100983.19;1757259;81;20992;-58
2023/05/04 06:07:39;;;;;;;8.18;5.70;;;;;;;14.67;69.52;100986.91;1757142;81;21012;-58
2023/05/04 06:10:09;;;;;;;10.88;5.35;;;;;;;14.72;69.44;100981.61;1757118;81;21016;-58
2023/05/04 06:12:38;;;;;;;8.35;5.50;;;;;;;14.82;69.10;100981.19;1757320;81;21439;-57
2023/05/04 06:15:08;;;;;;;10.45;6.15;;;;;;;14.88;68.59;100986.71;1757128;82;21039;-59
2023/05/04 06:17:39;;;;;;;10.68;5.62;;;;;;;14.96;68.39;100983.45;1757019;81;21004;-59
2023/05/04 06:20:09;;;;;;;10.15;6.15;;;;;;;15.01;68.10;100977.62;1757136;82;21086;-59
2023/05/04 06:22:39;;;;;;;11.10;5.55;;;;;;;15.08;67.95;100981.75;1757172;82;21019;-59
2023/05/04 06:25:10;;;;;;;14.87;6.67;;;;;;;15.19;67.76;100974.20;1757485;82;21055;-58
2023/05/04 06:27:39;;;;;;;11.25;5.80;;;;;;;15.34;67.18;100976.20;1757316;81;21039;-59
2023/05/04 06:30:09;;;;;;;12.07;6.17;;;;;;;15.54;67.25;100972.02;1757173;82;21015;-57
2023/05/04 06:32:38;;;;;;;10.43;6.10;;;;;;;15.78;66.45;100978.27;1757424;80;21104;-57
2023/05/04 06:35:08;;;;;;;13.88;6.70;;;;;;;15.96;65.49;100973.42;1757297;81;21513;-59
2023/05/04 06:37:37;;;;;;;9.58;6.12;;;;;;;16.11;65.04;100968.99;1757115;80;21047;-61
2023/05/04 06:40:07;;;;;;;11.88;6.70;;;;;;;16.26;64.28;100970.12;1757048;82;21023;-58
2023/05/04 06:42:35;;;;;;;8.75;6.30;;;;;;;16.46;63.58;100969.47;1757135;80;21501;-57
2023/05/04 06:45:06;;;;;;;10.70;6.67;;;;;;;16.62;62.80;100969.47;1757436;81;21013;-58
2023/05/04 06:47:36;;;;;;;13.80;6.78;;;;;;;16.80;62.39;100962.12;1757367;81;21051;-59
2023/05/04 06:50:10;;;;;;;11.12;6.33;;;;;;;17.05;61.83;100962.69;1740314;82;21067;-59
2023/05/04 06:52:42;;;;;;;15.83;7.20;;;;;;;17.38;60.49;100965.98;1757116;82;21012;-57
2023/05/04 06:55:10;;;;;;;14.60;6.58;;;;;;;17.69;58.71;100965.61;1757284;82;21039;-59
2023/05/04 06:57:40;;;;;;;10.00;6.53;;;;;;;17.93;58.46;100965.22;1757177;81;21459;-59
2023/05/04 07:00:10;;;;;;;14.30;7.62;;;;;;;18.21;57.88;100946.63;1757398;82;21059;-58
2023/05/04 07:02:38;;;;;;;11.55;6.75;;;;;;;18.46;56.90;100954.81;1757267;82;21070;-58
2023/05/04 07:05:09;;;;;;;9.35;6.60;;;;;;;18.66;55.54;100951.22;1757239;82;20984;-59
2023/05/04 07:07:38;;;;;;;10.43;6.80;;;;;;;18.73;54.50;100955.28;1757125;80;21011;-60
2023/05/04 07:10:08;;;;;;;13.22;6.65;;;;;;;18.80;54.93;100954.63;1757215;81;21074;-62
2023/05/04 07:12:37;;;;;;;12.88;6.25;;;;;;;18.94;53.63;100951.43;1757312;81;21083;-59
2023/05/04 07:15:10;;;;;;;11.97;6.65;;;;;;;18.98;53.78;100953.19;1757449;81;21071;-58
2023/05/04 07:17:39;;;;;;;10.20;6.15;;;;;;;19.02;53.39;100958.56;1757311;82;21035;-61
2023/05/04 07:20:10;;;;;;;11.70;6.12;;;;;;;18.96;53.30;100960.37;1755660;81;21015;-61
2023/05/04 07:22:38;;;;;;;9.48;5.85;;;;;;;18.93;53.36;100952.52;1743972;82;21047;-58
2023/05/04 07:25:08;;;;;;;12.23;6.28;;;;;;;18.93;53.28;100957.22;1744260;81;21063;-59
2023/05/04 07:27:42;;;;;;;8.28;6.67;;;;;;;19.07;53.13;100968.41;1744254;81;21031;-59
2023/05/04 07:30:12;;;;;;;12.15;6.40;;;;;;;19.25;52.81;100964.13;1744174;81;21459;-59
2023/05/04 07:32:41;;;;;;;10.18;6.17;;;;;;;19.45;52.35;100957.36;1743821;82;21063;-58
2023/05/04 07:35:10;;;;;;;10.25;6.33;;;;;;;19.58;51.31;100957.17;1743994;81;21028;-59
2023/05/04 07:37:41;;;;;;;9.30;6.05;;;;;;;19.71;51.20;100954.67;1744156;82;21016;-60
2023/05/04 07:40:13;;;;;;;10.30;6.30;;;;;;;19.84;50.26;100973.88;1743965;82;21016;-59
2023/05/04 07:42:42;;;;;;;8.98;6.25;;;;;;;19.69;50.52;100970.21;1743900;81;21016;-59
2023/05/04 07:45:10;;;;;;;13.80;6.45;;;;;;;19.70;50.86;100969.67;1743903;81;21071;-57
2023/05/04 07:47:39;;;;;;;13.48;7.00;;;;;;;19.74;50.43;100968.94;1743811;82;21040;-59
2023/05/04 07:50:09;;;;;;;19.17;6.83;;;;;;;19.76;50.36;100973.70;1744105;82;21016;-59
2023/05/04 07:52:38;;;;;;;12.60;6.80;;;;;;;19.76;50.44;100974.25;1743853;81;21012;-60
2023/05/04 07:55:08;;;;;;;8.85;5.80;;;;;;;19.65;50.12;100973.17;1755244;81;21028;-59
2023/05/04 07:57:37;;;;;;;12.65;6.25;;;;;;;19.59;50.93;100972.77;1765027;79;21056;-59
2023/05/04 08:00:09;;;;;;;14.63;6.45;;;;;;;19.69;50.83;100970.21;1706510;84;21067;-59
2023/05/04 08:02:40;;;;;;;8.90;5.90;;;;;;;19.71;50.53;100966.64;1772357;81;21091;-58
2023/05/04 08:05:12;;;;;;;12.90;6.45;;;;;;;19.59;50.27;100964.42;1747565;81;21056;-61
2023/05/04 08:07:42;;;;;;;9.88;5.80;;;;;;;19.40;51.01;100961.41;1733417;82;21013;-60
2023/05/04 08:10:11;;;;;;;10.60;6.15;;;;;;;19.42;51.43;100962.02;1743684;81;21075;-60
2023/05/04 08:12:41;;;;;;;11.40;6.53;;;;;;;19.60;51.04;100960.01;1754125;81;21024;-60
2023/05/04 08:15:11;;;;;;;12.25;6.75;;;;;;;19.92;50.38;100964.59;1774608;79;21452;-60
2023/05/04 08:17:40;;;;;;;10.45;6.30;;;;;;;20.28;49.80;100965.91;1775918;81;21425;-60
2023/05/04 08:20:11;;;;;;;9.70;6.37;;;;;;;20.72;48.98;100955.91;1774750;81;21020;-58
2023/05/04 08:22:40;;;;;;;10.08;6.62;;;;;;;21.15;47.61;100956.67;1774409;79;21020;-58
2023/05/04 08:25:10;;;;;;;11.78;7.35;;;;;;;21.38;46.77;100954.28;1774467;81;21020;-59
2023/05/04 08:27:39;;;;;;;11.63;7.67;;;;;;;21.53;46.27;100950.35;1774276;79;21040;-60
2023/05/04 08:30:09;;;;;;;14.78;7.62;;;;;;;21.76;45.76;100948.72;1754296;81;21058;-59
2023/05/04 08:32:38;;;;;;;16.80;7.50;;;;;;;21.89;43.95;100934.09;1732921;81;21015;-60
2023/05/04 08:35:08;;;;;;;8.63;5.90;;;;;;;21.82;44.24;100942.11;1732925;81;21039;-59
2023/05/04 08:37:37;;;;;;;14.23;6.80;;;;;;;21.87;44.02;100939.94;1732935;82;21030;-60
2023/05/04 08:40:07;;;;;;;11.35;6.42;;;;;;;21.80;44.20;100943.47;1732734;81;21049;-61
2023/05/04 08:42:36;;;;;;;10.38;6.62;;;;;;;21.77;44.13;100941.20;1732901;83;21054;-60
2023/05/04 08:45:06;;;;;;;10.15;6.78;;;;;;;21.80;44.03;100942.08;1733074;83;20991;-58
2023/05/04 08:47:35;;;;;;;14.70;7.45;;;;;;;21.74;44.07;100932.80;1712468;83;21067;-59
2023/05/04 08:50:06;;;;;;;11.08;6.65;;;;;;;21.77;44.12;100930.88;1733010;83;21035;-61
2023/05/04 08:52:35;;;;;;;14.47;6.70;;;;;;;21.74;44.28;100928.61;1732794;83;21046;-60
2023/05/04 08:55:05;;;;;;;11.15;6.67;;;;;;;21.69;44.04;100936.06;1734784;81;21051;-60
2023/05/04 08:57:34;;;;;;;10.82;6.47;;;;;;;21.57;44.32;100929.22;1772671;81;21107;-60
2023/05/04 09:00:04;;;;;;;9.25;6.60;;;;;;;21.50;44.52;100935.53;1772189;81;21695;-60
2023/05/04 09:02:33;;;;;;;10.95;6.42;;;;;;;21.40;44.84;100932.02;1772646;81;20992;-61
2023/05/04 09:05:02;;;;;;;9.43;6.28;;;;;;;21.30;45.36;100935.20;1686403;84;21030;-60
2023/05/04 09:07:31;;;;;;;9.08;5.92;;;;;;;21.30;45.93;100938.83;1759070;81;21023;-61
2023/05/04 09:10:00;;;;;;;9.63;6.25;;;;;;;21.33;45.78;100942.50;1758966;81;21038;-59
2023/05/04 09:12:30;;;;;;;12.85;6.45;;;;;;;21.32;45.50;100942.76;1759197;81;21003;-62
2023/05/04 09:15:00;;;;;;;11.60;6.12;;;;;;;21.19;45.62;100941.98;1759038;80;21422;-60
2023/05/04 09:17:30;;;;;;;10.00;5.75;;;;;;;21.08;45.96;100937.34;1759191;80;20972;-60
2023/05/04 09:20:01;;;;;;;9.68;5.83;;;;;;;20.99;46.33;100938.02;1759071;81;21030;-61
2023/05/04 09:22:31;;;;;;;10.15;5.95;;;;;;;20.87;46.70;100938.95;1759102;80;21532;-59
2023/05/04 09:25:11;;;;;;;12.03;5.83;;;;;;;20.81;47.53;100935.78;1758855;80;21007;-59
2023/05/04 09:27:43;;;;;;;8.33;5.92;;;;;;;20.76;47.49;100939.84;1758922;81;21411;-60
2023/05/04 09:30:12;;;;;;;10.43;6.00;;;;;;;20.63;47.54;100940.71;1717221;81;21047;-59
2023/05/04 09:32:46;;;;;;;13.65;7.08;;;;;;;20.53;47.67;100934.41;1759060;80;21007;-59
2023/05/04 09:35:17;;;;;;;10.60;5.83;;;;;;;20.50;47.90;100937.15;1759047;81;21011;-59
2023/05/04 09:37:47;;;;;;;7.67;5.45;;;;;;;20.41;48.13;100930.84;1756766;81;21095;-59
2023/05/04 09:40:17;;;;;;;9.30;5.85;;;;;;;20.36;48.56;100934.89;1759433;81;21083;-58
2023/05/04 09:42:46;;;;;;;12.43;5.72;;;;;;;20.31;48.73;100930.08;1759262;80;21086;-58
2023/05/04 09:45:15;;;;;;;10.28;5.85;;;;;;;20.30;48.85;100924.20;1716602;81;21408;-59
2023/05/04 09:47:44;;;;;;;9.98;5.60;;;;;;;20.34;48.91;100928.19;1759396;81;21032;-60
2023/05/04 09:50:17;;;;;;;10.23;5.90;;;;;;;20.38;49.07;100926.59;1759039;80;20996;-60
2023/05/04 09:52:48;;;;;;;12.37;5.22;;;;;;;20.45;49.07;100925.92;1759538;80;21007;-59
2023/05/04 09:55:18;;;;;;;7.90;5.12;;;;;;;20.48;48.71;100918.46;1759233;80;21003;-60
2023/05/04 09:57:49;;;;;;;7.50;5.50;;;;;;;20.47;48.71;100920.95;1759322;81;21043;-60
2023/05/04 10:00:19;;;;;;;9.20;5.58;;;;;;;20.50;48.68;100917.66;1759082;80;21554;-61
2023/05/04 10:02:48;;;;;;;11.12;5.83;;;;;;;20.47;48.49;100915.92;1759540;80;21436;-60
2023/05/04 10:05:21;;;;;;;9.93;5.83;;;;;;;20.45;48.47;100906.98;1744730;81;21043;-57
2023/05/04 10:07:51;;;;;;;9.58;6.08;;;;;;;20.50;48.46;100911.25;1743779;82;21144;-60
2023/05/04 10:10:20;;;;;;;12.80;6.47;;;;;;;20.56;48.38;100911.09;1743844;82;21103;-59
2023/05/04 10:12:49;;;;;;;10.95;6.92;;;;;;;20.61;48.26;100905.31;1743770;81;21486;-61
2023/05/04 10:15:18;;;;;;;12.70;6.53;;;;;;;20.54;47.96;100896.58;1743762;82;21055;-60
2023/05/04 10:18:18;;;;;;;9.60;6.62;;;;;;;20.49;47.67;100899.27;1709648;82;21092;-60
2023/05/04 10:21:01;;;;;;;9.13;6.72;;;;;;;20.45;48.18;100899.47;1740290;82;21032;-59
2023/05/04 10:24:03;;;;;;;10.63;6.90;;;;;;;20.51;47.79;100899.86;1737966;81;22041;-60
2023/05/04 10:26:59;;;;;;;10.28;6.25;;;;;;;20.49;47.88;100892.31;1743785;81;21000;-61
2023/05/04 10:29:31;;;;;;;10.58;5.62;;;;;;;20.49;48.26;100890.92;1733627;82;21067;-62
2023/05/04 10:32:00;;;;;;;7.08;4.80;;;;;;;20.57;48.90;100885.48;1743890;82;21526;-60
2023/05/04 10:34:32;;;;;;;9.98;5.20;;;;;;;20.67;48.83;100884.81;1744208;82;20984;-61
2023/05/04 10:37:02;;;;;;;9.95;5.90;;;;;;;20.72;48.44;100884.34;1744093;82;21055;-62
2023/05/04 10:39:32;;;;;;;8.53;5.65;;;;;;;20.74;47.67;100877.13;1743883;82;20988;-59
2023/05/04 10:42:03;;;;;;;8.73;5.97;;;;;;;20.71;47.70;100873.46;1743882;82;21056;-59
2023/05/04 10:44:51;;;;;;;9.73;5.97;;;;;;;20.72;48.10;100868.19;1743893;82;21024;-60
2023/05/04 10:47:30;;;;;;;9.45;5.62;;;;;;;20.72;47.97;100864.85;1743873;82;21087;-61
2023/05/04 10:50:09;;;;;;;10.00;5.72;;;;;;;20.70;47.40;100872.62;1743557;81;21067;-59
2023/05/04 10:52:49;;;;;;;7.35;4.97;;;;;;;20.68;47.87;100866.45;1743549;82;21004;-59
2023/05/04 10:55:21;;;;;;;7.35;4.90;;;;;;;20.69;48.55;100877.89;1687060;84;21609;-59
2023/05/04 10:57:52;;;;;;;6.53;5.25;;;;;;;20.70;48.73;100870.38;1743712;82;21055;-59
2023/05/04 11:00:21;;;;;;;6.78;5.08;;;;;;;20.68;48.96;100868.40;1743525;82;21083;-60
2023/05/04 11:02:51;;;;;;;7.65;5.10;;;;;;;20.65;48.94;100867.52;1733324;82;21060;-61
2023/05/04 11:05:20;;;;;;;6.50;5.03;;;;;;;20.65;48.94;100868.35;1772549;81;21488;-59
2023/05/04 11:07:51;;;;;;;6.72;4.83;;;;;;;20.70;48.69;100864.27;1774528;81;21064;-61
2023/05/04 11:10:24;;;;;;;8.63;4.85;;;;;;;20.74;48.55;100861.81;1774513;79;21075;-59
2023/05/04 11:12:59;;;;;;;9.28;4.87;;;;;;;20.80;48.22;100853.84;1774253;81;21103;-59
2023/05/04 11:15:25;;;;;;;9.63;6.25;;;;;;;20.84;48.65;100861.45;1774029;80;21009;-61
2023/05/04 11:17:54;;;;;;;7.78;4.87;;;;;;;20.86;48.82;100859.81;1774525;81;21043;-59
2023/05/04 11:20:24;;;;;;;11.03;5.25;;;;;;;20.80;49.22;100852.44;1774269;81;21680;-59
2023/05/04 11:22:53;;;;;;;8.75;5.72;;;;;;;20.77;49.30;100859.91;1783818;79;21131;-58
2023/05/04 11:25:29;;;;;;;8.08;4.83;;;;;;;20.77;49.24;100848.22;1788324;80;21039;-59
2023/05/04 11:27:57;;;;;;;5.55;4.40;;;;;;;20.77;49.78;100847.37;1788005;79;21015;-61
2023/05/04 11:30:34;;;;;;;7.35;4.50;;;;;;;20.73;50.08;100849.83;1788251;79;21027;-58
2023/05/04 11:33:11;;;;;;;6.72;4.33;;;;;;;20.72;50.41;100843.96;1788705;80;21016;-60
2023/05/04 11:35:41;;;;;;;7.77;4.27;;;;;;;20.70;50.75;100845.31;1772601;80;21087;-60
2023/05/04 11:38:13;;;;;;;8.68;4.75;;;;;;;20.67;50.25;100837.47;1788951;80;21279;-61